Time;durP1;ratioP1;P1;durP2;ratioP2;P2;SDS_P1;SDS_P2;PMS_P1;PMS_P2;Temp;Humidity;BMP_temperature;BMP_pressure;BME280_temperature;BME280_humidity;BME280_pressure;Samples;Min_cycle;Max_cycle;Signal;HPM_P1;HPM_P2
2024/02/07 00:01:57;;;;;;;4.40;0.55;;;9.70;85.40;;;;;;5026007;28;20060;-65
2024/02/07 00:04:23;;;;;;;0.75;0.30;;;9.70;86.10;;;;;;5029692;28;20029;-63
2024/02/07 00:06:49;;;;;;;1.00;0.65;;;9.60;85.20;;;;;;5025824;28;20033;-63
2024/02/07 00:09:16;;;;;;;0.35;0.20;;;9.60;85.30;;;;;;5027678;28;20026;-63
2024/02/07 00:11:43;;;;;;;1.48;0.30;;;9.50;85.20;;;;;;5028012;28;20112;-63
2024/02/07 00:14:09;;;;;;;0.30;0.30;;;9.50;85.40;;;;;;5029443;28;20056;-63
2024/02/07 00:16:35;;;;;;;0.20;0.20;;;9.50;85.20;;;;;;5030088;28;20022;-63
2024/02/07 00:19:01;;;;;;;0.90;0.55;;;9.50;85.30;;;;;;5029179;28;20034;-65
2024/02/07 00:21:27;;;;;;;0.28;0.28;;;9.40;85.00;;;;;;5030248;28;20043;-63
2024/02/07 00:23:53;;;;;;;0.20;0.20;;;9.40;85.00;;;;;;5030097;28;20046;-63
2024/02/07 00:26:19;;;;;;;0.30;0.20;;;9.40;85.10;;;;;;5028477;28;20076;-63
2024/02/07 00:28:45;;;;;;;0.70;0.35;;;9.40;85.80;;;;;;5030468;28;20091;-63
2024/02/07 00:31:11;;;;;;;0.80;0.40;;;9.40;85.10;;;;;;5029402;28;20025;-66
2024/02/07 00:33:37;;;;;;;3.15;0.15;;;9.50;85.10;;;;;;5028236;28;20036;-65
2024/02/07 00:36:03;;;;;;;1.90;0.45;;;9.50;85.00;;;;;;5028233;28;20416;-65
2024/02/07 00:38:30;;;;;;;0.20;0.20;;;9.50;84.90;;;;;;5029319;28;20488;-65
2024/02/07 00:40:55;;;;;;;1.38;0.60;;;9.50;84.80;;;;;;5029406;28;20470;-65
2024/02/07 00:43:21;;;;;;;0.10;0.10;;;9.50;84.90;;;;;;5030951;28;20068;-63
2024/02/07 00:45:47;;;;;;;2.72;0.63;;;9.50;84.80;;;;;;5034068;28;20029;-63
2024/02/07 00:48:14;;;;;;;1.45;0.20;;;9.50;84.60;;;;;;5032561;28;20044;-63
2024/02/07 00:50:40;;;;;;;0.63;0.40;;;9.50;84.70;;;;;;5026544;28;20034;-63
2024/02/07 00:53:06;;;;;;;0.45;0.25;;;9.50;84.70;;;;;;5028144;28;20423;-63
2024/02/07 00:55:32;;;;;;;0.40;0.28;;;9.50;84.70;;;;;;5029404;28;20017;-63
2024/02/07 00:57:58;;;;;;;4.32;0.90;;;9.50;84.70;;;;;;5028848;28;20049;-63
2024/02/07 01:00:25;;;;;;;0.30;0.30;;;9.50;84.40;;;;;;5033313;28;20060;-63
2024/02/07 01:02:51;;;;;;;1.60;0.38;;;9.40;84.40;;;;;;5024182;28;20029;-63
2024/02/07 01:05:18;;;;;;;0.70;0.68;;;9.40;84.50;;;;;;5029557;28;20108;-63
2024/02/07 01:07:44;;;;;;;1.60;0.77;;;9.30;84.50;;;;;;5028509;28;20044;-63
2024/02/07 01:10:13;;;;;;;0.20;0.20;;;9.30;85.30;;;;;;5032763;28;20033;-64
2024/02/07 01:12:40;;;;;;;0.95;0.30;;;9.40;84.70;;;;;;5026879;28;20049;-64
2024/02/07 01:15:08;;;;;;;0.30;0.30;;;9.30;84.50;;;;;;5027602;28;20135;-63
2024/02/07 01:17:34;;;;;;;0.68;0.38;;;9.30;84.30;;;;;;5024773;28;20034;-63
2024/02/07 01:20:00;;;;;;;4.30;0.40;;;9.30;84.40;;;;;;5029778;28;20033;-63
2024/02/07 01:22:26;;;;;;;2.70;0.52;;;9.30;84.40;;;;;;5034692;28;20481;-63
2024/02/07 01:24:55;;;;;;;1.38;0.63;;;9.30;84.40;;;;;;5021986;28;20033;-63
2024/02/07 01:27:21;;;;;;;2.20;0.73;;;9.30;84.30;;;;;;5025624;28;20075;-63
2024/02/07 01:29:47;;;;;;;2.83;0.22;;;9.30;84.40;;;;;;5022315;28;20033;-63
2024/02/07 01:32:14;;;;;;;0.50;0.10;;;9.30;84.40;;;;;;5029815;28;20025;-63
2024/02/07 01:34:41;;;;;;;3.22;0.82;;;9.30;84.30;;;;;;5022230;28;20025;-63
2024/02/07 01:37:07;;;;;;;0.47;0.38;;;9.30;84.10;;;;;;5027657;28;20108;-63
2024/02/07 01:39:35;;;;;;;0.30;0.30;;;9.30;84.10;;;;;;5024840;28;20059;-63
2024/02/07 01:42:02;;;;;;;2.70;0.45;;;9.30;83.90;;;;;;5030245;28;20061;-63
2024/02/07 01:44:29;;;;;;;1.10;0.40;;;9.20;83.90;;;;;;5025040;28;20029;-63
2024/02/07 01:47:14;;;;;;;1.02;0.50;;;9.20;84.00;;;;;;5028184;28;20029;-63
2024/02/07 01:49:51;;;;;;;0.20;0.20;;;9.20;84.00;;;;;;5025621;28;20497;-63
2024/02/07 01:52:21;;;;;;;0.35;0.30;;;9.10;83.90;;;;;;5032145;28;20072;-64
2024/02/07 01:54:48;;;;;;;0.90;0.65;;;9.10;84.10;;;;;;5025183;28;20021;-64
2024/02/07 01:57:14;;;;;;;0.77;0.40;;;9.00;83.80;;;;;;5025021;28;20026;-63
2024/02/07 01:59:41;;;;;;;7.47;1.20;;;9.00;83.90;;;;;;5023363;28;20200;-63
2024/02/07 02:02:08;;;;;;;0.52;0.40;;;9.00;84.00;;;;;;5028547;28;20516;-63
2024/02/07 02:04:34;;;;;;;0.20;0.20;;;9.00;84.10;;;;;;5026069;28;20038;-63
2024/02/07 02:07:01;;;;;;;2.28;0.43;;;9.00;84.00;;;;;;5032769;28;20535;-63
2024/02/07 02:09:28;;;;;;;0.88;0.32;;;8.90;83.90;;;;;;5028297;28;20096;-63
2024/02/07 02:11:55;;;;;;;0.10;0.10;;;8.90;84.00;;;;;;5028615;28;20030;-63
2024/02/07 02:14:21;;;;;;;0.85;0.43;;;8.90;84.10;;;;;;5031349;28;20038;-61
2024/02/07 02:16:48;;;;;;;1.05;0.40;;;8.90;84.10;;;;;;5028281;28;20041;-61
2024/02/07 02:19:17;;;;;;;2.25;0.40;;;8.90;84.10;;;;;;5027211;28;20393;-61
2024/02/07 02:22:10;;;;;;;1.95;0.93;;;8.90;84.10;;;;;;5026985;28;20520;-61
2024/02/07 02:25:07;;;;;;;1.77;0.40;;;8.90;84.10;;;;;;5021314;28;20045;-64
2024/02/07 02:28:02;;;;;;;1.70;0.38;;;8.80;84.00;;;;;;5023942;28;20025;-64
2024/02/07 02:30:40;;;;;;;0.10;0.10;;;8.60;83.80;;;;;;5027170;28;20080;-62
2024/02/07 02:33:12;;;;;;;2.13;0.20;;;8.50;84.20;;;;;;5030242;28;20021;-62
2024/02/07 02:35:43;;;;;;;0.63;0.30;;;8.60;84.20;;;;;;5031600;28;20037;-62
2024/02/07 02:38:09;;;;;;;0.30;0.22;;;8.50;84.20;;;;;;5036903;28;20519;-62
2024/02/07 02:40:35;;;;;;;1.15;0.50;;;8.50;84.20;;;;;;5027175;28;20380;-62
2024/02/07 02:43:01;;;;;;;4.13;0.38;;;8.60;84.10;;;;;;5039498;28;20065;-62
2024/02/07 02:45:27;;;;;;;1.00;0.60;;;8.60;84.10;;;;;;5027549;28;20036;-62
2024/02/07 02:47:54;;;;;;;1.15;0.43;;;8.60;84.20;;;;;;5027061;28;20065;-62
2024/02/07 02:50:21;;;;;;;0.10;0.10;;;8.70;84.10;;;;;;5029360;28;20041;-64
2024/02/07 02:52:47;;;;;;;3.10;0.35;;;8.70;84.10;;;;;;5032100;28;20087;-64
2024/02/07 02:55:13;;;;;;;1.23;0.50;;;8.70;84.00;;;;;;5032438;28;20456;-64
2024/02/07 02:57:40;;;;;;;1.20;0.68;;;8.70;83.90;;;;;;5033899;28;20029;-64
2024/02/07 03:00:07;;;;;;;0.65;0.50;;;8.70;83.80;;;;;;5018659;28;20112;-65
2024/02/07 03:02:33;;;;;;;2.08;0.82;;;8.70;83.60;;;;;;5026423;28;20034;-64
2024/02/07 03:05:02;;;;;;;0.90;0.65;;;8.60;83.50;;;;;;5030377;28;20041;-64
2024/02/07 03:07:54;;;;;;;1.80;0.35;;;8.50;83.30;;;;;;5032661;28;20512;-64
2024/02/07 03:10:23;;;;;;;0.35;0.13;;;8.40;83.50;;;;;;5030309;28;20071;-65
2024/02/07 03:12:50;;;;;;;3.70;0.80;;;8.30;83.40;;;;;;5027369;28;20092;-64
2024/02/07 03:15:18;;;;;;;1.42;0.20;;;8.20;83.60;;;;;;5025923;28;20063;-62
2024/02/07 03:17:44;;;;;;;0.47;0.47;;;8.20;83.80;;;;;;5031726;28;20034;-62
2024/02/07 03:20:14;;;;;;;1.45;0.40;;;8.10;83.60;;;;;;5036021;28;20059;-62
2024/02/07 03:22:41;;;;;;;0.30;0.30;;;8.20;83.50;;;;;;5030156;28;20366;-62
2024/02/07 03:25:13;;;;;;;3.05;0.60;;;8.20;83.50;;;;;;5030699;28;20484;-62
2024/02/07 03:27:44;;;;;;;0.77;0.40;;;8.10;83.40;;;;;;5022863;28;20140;-62
2024/02/07 03:30:15;;;;;;;1.17;0.65;;;8.10;83.30;;;;;;5027791;28;20030;-63
2024/02/07 03:32:42;;;;;;;0.83;0.73;;;8.10;83.10;;;;;;5027595;28;20033;-62
2024/02/07 03:35:09;;;;;;;0.90;0.32;;;8.10;83.10;;;;;;5035725;28;20021;-62
2024/02/07 03:37:35;;;;;;;0.98;0.65;;;8.10;83.10;;;;;;5030102;28;20042;-62
2024/02/07 03:40:05;;;;;;;4.10;0.68;;;8.10;83.10;;;;;;5027113;28;20048;-62
2024/02/07 03:42:31;;;;;;;0.80;0.40;;;8.00;83.10;;;;;;5036436;28;20530;-62
2024/02/07 03:45:03;;;;;;;0.70;0.40;;;8.00;83.30;;;;;;5028597;28;20639;-62
2024/02/07 03:47:30;;;;;;;0.65;0.38;;;8.10;83.30;;;;;;5027872;28;20056;-62
2024/02/07 03:49:57;;;;;;;2.78;0.77;;;8.10;83.20;;;;;;5033801;28;20087;-62
2024/02/07 03:52:23;;;;;;;0.20;0.20;;;8.10;83.20;;;;;;5029947;28;20035;-62
2024/02/07 03:54:52;;;;;;;2.63;0.40;;;8.10;83.10;;;;;;5029974;28;20025;-62
2024/02/07 03:57:21;;;;;;;0.28;0.28;;;8.10;83.10;;;;;;5033186;28;20507;-62
2024/02/07 03:59:48;;;;;;;0.28;0.28;;;8.10;83.10;;;;;;5033120;28;20080;-62
2024/02/07 04:02:21;;;;;;;3.30;0.82;;;8.10;83.10;;;;;;5031551;28;20464;-62
2024/02/07 04:04:49;;;;;;;0.32;0.22;;;8.10;83.10;;;;;;5028069;28;20056;-62
2024/02/07 04:07:16;;;;;;;2.45;0.28;;;8.10;83.10;;;;;;5031204;28;20032;-62
2024/02/07 04:09:43;;;;;;;3.10;0.30;;;8.10;83.00;;;;;;5034328;28;20037;-62
2024/02/07 05:17:25;;;;;;;0.55;0.20;;;7.80;83.20;;;;;;5030251;28;20036;-62
2024/02/07 05:19:51;;;;;;;3.13;0.77;;;7.80;83.20;;;;;;5024966;28;20025;-62
2024/02/07 05:22:18;;;;;;;0.10;0.10;;;7.80;83.30;;;;;;5028347;28;20548;-65
2024/02/07 05:24:47;;;;;;;1.85;0.30;;;7.80;83.30;;;;;;5027980;28;20026;-65
2024/02/07 05:27:13;;;;;;;0.75;0.55;;;7.80;83.30;;;;;;5032000;28;20033;-65
2024/02/07 05:29:40;;;;;;;2.92;0.63;;;7.80;83.30;;;;;;5026383;28;20048;-65
2024/02/07 05:32:07;;;;;;;0.25;0.25;;;7.80;83.30;;;;;;5028141;28;20035;-65
2024/02/07 05:34:34;;;;;;;1.27;0.40;;;7.70;83.20;;;;;;5052920;28;20087;-65
2024/02/07 05:37:04;;;;;;;2.13;0.65;;;7.70;83.30;;;;;;5029747;28;20029;-65
2024/02/07 05:39:33;;;;;;;2.47;0.40;;;7.70;83.40;;;;;;5020654;28;20108;-65
2024/02/07 05:42:00;;;;;;;0.55;0.25;;;7.70;83.60;;;;;;5031520;28;20476;-65
2024/02/07 05:44:27;;;;;;;0.85;0.30;;;7.70;83.50;;;;;;5029341;28;20092;-65
2024/02/07 05:46:53;;;;;;;6.82;0.68;;;7.70;83.40;;;;;;5027567;28;20029;-65
2024/02/07 05:49:19;;;;;;;2.03;0.70;;;7.70;83.50;;;;;;5033113;28;20124;-65
2024/02/07 05:51:57;;;;;;;0.95;0.75;;;7.70;83.60;;;;;;5026341;28;20029;-65
2024/02/07 05:54:25;;;;;;;0.65;0.40;;;7.70;83.50;;;;;;5031616;28;20128;-65
2024/02/07 05:56:51;;;;;;;0.30;0.25;;;7.70;83.50;;;;;;5025450;28;20049;-65
2024/02/07 05:59:19;;;;;;;0.57;0.45;;;7.70;83.50;;;;;;5038801;28;20027;-65
2024/02/07 06:01:45;;;;;;;1.77;0.57;;;7.70;83.50;;;;;;5033376;28;20443;-65
2024/02/07 06:04:11;;;;;;;1.25;0.77;;;7.80;83.50;;;;;;5029611;28;20026;-65
2024/02/07 06:06:37;;;;;;;2.67;0.35;;;7.70;83.40;;;;;;5035105;28;20184;-65
2024/02/07 06:09:05;;;;;;;1.83;0.50;;;7.70;83.40;;;;;;5034522;28;20443;-65
2024/02/07 06:11:41;;;;;;;0.90;0.70;;;7.80;83.40;;;;;;5033118;28;20564;-65
2024/02/07 06:14:16;;;;;;;5.63;1.10;;;7.80;83.30;;;;;;5031313;28;20046;-63
2024/02/07 06:16:42;;;;;;;0.45;0.45;;;7.70;83.20;;;;;;5034232;28;20055;-62
2024/02/07 06:19:07;;;;;;;0.35;0.30;;;7.70;83.50;;;;;;5028661;28;20033;-63
2024/02/07 06:21:33;;;;;;;5.38;0.82;;;7.80;83.40;;;;;;5032509;28;20489;-63
2024/02/07 06:23:58;;;;;;;0.50;0.40;;;7.70;83.40;;;;;;5032597;28;20128;-65
2024/02/07 06:26:25;;;;;;;0.98;0.60;;;7.80;83.50;;;;;;5032091;28;20108;-65
2024/02/07 06:28:50;;;;;;;1.52;0.57;;;7.70;83.50;;;;;;5031254;28;20121;-65
2024/02/07 06:31:17;;;;;;;1.65;0.60;;;7.80;83.40;;;;;;5031461;28;20116;-65
2024/02/07 06:33:43;;;;;;;0.32;0.32;;;7.80;83.20;;;;;;5023878;28;20105;-65
2024/02/07 06:36:10;;;;;;;0.57;0.30;;;7.70;83.30;;;;;;5034997;28;20104;-65
2024/02/07 06:38:35;;;;;;;2.92;0.38;;;7.70;83.30;;;;;;5033530;28;20025;-63
2024/02/07 06:41:01;;;;;;;4.72;0.40;;;7.70;83.50;;;;;;5028594;28;20095;-62
2024/02/07 06:43:27;;;;;;;1.13;0.32;;;7.70;83.50;;;;;;5034966;28;20018;-65
2024/02/07 06:45:53;;;;;;;0.63;0.63;;;7.70;83.50;;;;;;5027124;28;20065;-65
2024/02/07 06:48:19;;;;;;;1.77;0.65;;;7.70;83.50;;;;;;5036481;28;20044;-65
2024/02/07 06:50:45;;;;;;;1.38;0.70;;;7.70;83.50;;;;;;5034638;28;20037;-65
2024/02/07 06:53:11;;;;;;;1.27;0.70;;;7.70;83.50;;;;;;5025417;28;20029;-65
2024/02/07 06:55:37;;;;;;;3.33;0.68;;;7.70;83.40;;;;;;5062698;28;20021;-65
2024/02/07 06:58:03;;;;;;;2.00;0.95;;;7.70;83.50;;;;;;5030803;28;20101;-65
2024/02/07 07:00:28;;;;;;;5.55;1.33;;;7.80;83.50;;;;;;5026266;28;20030;-65
2024/02/07 07:02:54;;;;;;;3.90;1.15;;;7.80;83.40;;;;;;5029276;28;20440;-65
2024/02/07 07:05:20;;;;;;;5.00;1.00;;;7.80;83.50;;;;;;5029459;28;20063;-65
2024/02/07 07:07:45;;;;;;;4.57;0.90;;;7.80;83.40;;;;;;5031966;28;20128;-65
2024/02/07 07:10:11;;;;;;;1.83;0.68;;;7.80;83.50;;;;;;5025213;28;20444;-65
2024/02/07 07:12:37;;;;;;;2.33;0.93;;;7.80;83.40;;;;;;5031091;28;20025;-65
2024/02/07 07:15:04;;;;;;;1.00;0.45;;;7.80;83.50;;;;;;5028657;28;20049;-65
2024/02/07 07:17:29;;;;;;;2.15;0.82;;;7.80;83.50;;;;;;5029226;28;20048;-65
2024/02/07 07:19:55;;;;;;;2.67;0.70;;;7.80;83.60;;;;;;5031490;28;20030;-65
2024/02/07 07:22:21;;;;;;;0.60;0.60;;;7.80;83.60;;;;;;5035553;28;20540;-65
2024/02/07 07:24:46;;;;;;;1.23;0.85;;;7.80;83.60;;;;;;5037682;28;20065;-66
2024/02/07 07:27:12;;;;;;;3.85;1.35;;;7.80;83.50;;;;;;5051053;28;20401;-62
2024/02/07 07:29:38;;;;;;;1.00;0.45;;;7.90;83.40;;;;;;5035121;28;20074;-62
2024/02/07 07:32:04;;;;;;;0.75;0.50;;;7.90;83.40;;;;;;5023731;28;20033;-62
2024/02/07 07:34:30;;;;;;;3.97;0.68;;;7.90;83.50;;;;;;5021926;28;20061;-62
2024/02/07 07:36:56;;;;;;;3.22;0.63;;;7.80;83.50;;;;;;5020645;28;20159;-62
2024/02/07 07:39:21;;;;;;;0.77;0.70;;;7.80;83.70;;;;;;5011592;28;20152;-62
2024/02/07 07:41:47;;;;;;;1.48;0.55;;;7.80;83.80;;;;;;5030003;28;20021;-62
2024/02/07 07:44:13;;;;;;;0.73;0.73;;;7.80;83.80;;;;;;5032089;28;20428;-62
2024/02/07 07:46:40;;;;;;;0.95;0.50;;;7.80;83.80;;;;;;5032682;28;20041;-63
2024/02/07 07:49:06;;;;;;;2.70;0.63;;;7.80;83.80;;;;;;5033368;28;20034;-62
2024/02/07 07:51:32;;;;;;;3.05;0.63;;;7.90;83.80;;;;;;5030167;28;20469;-63
2024/02/07 07:53:58;;;;;;;1.52;1.00;;;7.80;83.70;;;;;;5011502;28;20060;-62
2024/02/07 07:56:25;;;;;;;2.50;1.40;;;7.90;83.70;;;;;;5030174;28;20520;-62
2024/02/07 07:58:50;;;;;;;1.23;0.82;;;7.90;83.70;;;;;;5033255;28;20044;-63
2024/02/07 08:01:23;;;;;;;1.45;1.15;;;7.80;83.60;;;;;;5032425;28;20025;-62
2024/02/07 08:03:52;;;;;;;2.05;0.35;;;7.80;83.70;;;;;;5023296;28;20064;-65
2024/02/07 08:06:18;;;;;;;4.78;1.08;;;7.80;83.80;;;;;;5026778;28;20511;-65
2024/02/07 08:08:44;;;;;;;0.40;0.40;;;7.80;83.70;;;;;;5024426;28;20025;-65
2024/02/07 08:11:10;;;;;;;1.85;1.10;;;7.80;83.70;;;;;;5011345;28;20065;-65
2024/02/07 08:13:35;;;;;;;0.85;0.68;;;7.80;83.70;;;;;;5018549;28;20535;-62
2024/02/07 08:16:01;;;;;;;1.05;0.60;;;7.80;83.90;;;;;;5026958;28;20033;-62
2024/02/07 08:18:29;;;;;;;1.48;1.20;;;7.80;83.90;;;;;;5027400;28;20510;-63
2024/02/07 08:20:55;;;;;;;0.85;0.63;;;7.80;83.90;;;;;;5026752;28;20404;-62
2024/02/07 08:23:21;;;;;;;2.95;1.27;;;7.80;84.00;;;;;;5024831;28;20498;-62
2024/02/07 08:25:47;;;;;;;1.55;0.45;;;7.80;83.90;;;;;;5024880;28;20043;-61
2024/02/07 08:28:13;;;;;;;3.47;1.10;;;7.80;83.90;;;;;;5024965;28;20040;-62
2024/02/07 08:30:39;;;;;;;4.57;1.50;;;7.80;84.00;;;;;;5025449;28;20048;-60
2024/02/07 08:33:04;;;;;;;1.67;0.93;;;7.90;84.60;;;;;;5027949;28;20021;-61
2024/02/07 08:35:30;;;;;;;3.25;0.82;;;7.90;83.90;;;;;;5027572;28;20026;-62
2024/02/07 08:37:58;;;;;;;3.17;1.10;;;8.00;83.80;;;;;;5028973;28;20053;-61
2024/02/07 08:40:33;;;;;;;0.50;0.50;;;8.00;83.70;;;;;;5018958;28;20029;-61
2024/02/07 08:43:00;;;;;;;0.95;0.68;;;8.00;83.70;;;;;;5020149;28;20041;-67
2024/02/07 08:45:26;;;;;;;0.90;0.90;;;8.00;84.20;;;;;;5027665;28;20029;-67
2024/02/07 08:47:51;;;;;;;1.55;0.90;;;8.00;83.60;;;;;;5026802;28;20037;-67
2024/02/07 08:50:17;;;;;;;1.80;0.80;;;8.00;83.70;;;;;;5005940;28;20030;-64
2024/02/07 08:52:44;;;;;;;2.55;1.20;;;8.00;83.80;;;;;;5022177;28;20044;-65
2024/02/07 08:55:10;;;;;;;2.42;1.00;;;8.00;83.80;;;;;;5020750;28;20048;-63
2024/02/07 08:57:36;;;;;;;0.85;0.73;;;8.00;83.70;;;;;;5029519;28;20034;-65
2024/02/07 09:00:04;;;;;;;3.88;1.00;;;8.00;83.60;;;;;;5026835;28;20473;-66
2024/02/07 09:02:30;;;;;;;2.08;1.10;;;8.00;83.70;;;;;;5024987;28;20045;-68
2024/02/07 09:04:56;;;;;;;1.80;0.80;;;8.00;83.80;;;;;;5024999;28;20025;-68
2024/02/07 09:07:22;;;;;;;2.30;1.10;;;8.00;83.80;;;;;;5030317;28;20033;-67
2024/02/07 09:09:48;;;;;;;1.52;1.10;;;8.00;83.80;;;;;;5030114;28;20033;-65
2024/02/07 09:12:14;;;;;;;2.75;0.68;;;8.10;83.80;;;;;;5029114;28;20366;-66
2024/02/07 09:14:39;;;;;;;2.85;1.05;;;8.10;83.70;;;;;;5030455;28;20045;-66
2024/02/07 09:17:05;;;;;;;3.53;1.67;;;8.10;83.70;;;;;;5024391;28;20041;-66
2024/02/07 09:19:31;;;;;;;1.85;0.60;;;8.20;83.70;;;;;;5016190;28;20026;-66
2024/02/07 09:21:56;;;;;;;2.55;0.93;;;8.20;83.60;;;;;;5024075;28;20108;-66
2024/02/07 09:24:22;;;;;;;0.68;0.68;;;8.20;83.70;;;;;;5023326;28;20095;-66
2024/02/07 09:26:49;;;;;;;1.65;0.68;;;8.20;83.70;;;;;;5029340;28;20393;-66
2024/02/07 09:29:15;;;;;;;1.05;0.85;;;8.20;83.70;;;;;;5032789;28;20033;-66
2024/02/07 09:31:42;;;;;;;1.40;1.20;;;8.20;83.70;;;;;;5031455;28;20398;-66
2024/02/07 09:34:07;;;;;;;2.75;1.23;;;8.30;83.70;;;;;;5018854;28;20497;-66
2024/02/07 09:36:38;;;;;;;13.70;1.13;;;8.30;83.60;;;;;;5029437;28;20057;-66
2024/02/07 09:39:04;;;;;;;0.90;0.70;;;8.40;83.60;;;;;;5027231;28;20049;-60
2024/02/07 09:41:32;;;;;;;2.63;1.08;;;8.40;83.50;;;;;;5032195;28;20037;-60
2024/02/07 09:44:02;;;;;;;2.17;0.88;;;8.50;83.60;;;;;;5019591;28;20033;-61
2024/02/07 09:46:36;;;;;;;7.30;0.82;;;8.60;83.60;;;;;;5025529;28;20128;-61
2024/02/07 09:49:08;;;;;;;4.80;0.52;;;8.60;83.50;;;;;;5028936;28;20449;-61
2024/02/07 09:51:34;;;;;;;1.08;0.77;;;8.70;83.50;;;;;;5032840;28;20033;-61
2024/02/07 09:54:01;;;;;;;1.40;0.82;;;8.60;83.40;;;;;;5023863;28;20030;-61
2024/02/07 09:56:30;;;;;;;5.60;0.82;;;8.70;83.40;;;;;;5029888;28;20032;-61
2024/02/07 09:58:56;;;;;;;5.97;1.05;;;8.70;83.30;;;;;;5023964;28;20050;-61
2024/02/07 10:01:22;;;;;;;2.83;0.85;;;8.70;83.20;;;;;;5023464;28;20041;-61
2024/02/07 10:03:51;;;;;;;1.45;0.80;;;8.70;83.20;;;;;;5026163;28;20046;-61
2024/02/07 10:06:17;;;;;;;2.72;0.90;;;8.80;83.10;;;;;;5036938;28;20021;-61
2024/02/07 10:08:50;;;;;;;3.35;0.93;;;8.80;83.00;;;;;;5028267;28;20037;-61
2024/02/07 10:11:16;;;;;;;2.05;0.93;;;8.80;83.00;;;;;;5034761;28;20037;-61
2024/02/07 10:13:41;;;;;;;3.47;1.67;;;8.80;83.00;;;;;;5030374;28;20042;-61
2024/02/07 10:16:09;;;;;;;1.95;0.65;;;8.80;82.90;;;;;;5029819;28;20114;-61
2024/02/07 10:18:34;;;;;;;0.82;0.60;;;8.80;82.90;;;;;;5017956;28;20608;-61
2024/02/07 10:21:01;;;;;;;2.28;0.77;;;8.90;82.90;;;;;;5016591;28;20112;-67
2024/02/07 10:23:28;;;;;;;0.75;0.75;;;8.90;82.70;;;;;;5024635;28;20029;-67
2024/02/07 10:25:55;;;;;;;4.88;1.15;;;8.90;82.60;;;;;;5043401;28;20029;-67
2024/02/07 10:28:24;;;;;;;4.10;0.90;;;8.90;82.60;;;;;;5029325;28;20510;-67
2024/02/07 10:31:00;;;;;;;1.98;0.43;;;9.00;82.60;;;;;;5023818;28;20108;-67
2024/02/07 10:33:57;;;;;;;3.03;1.33;;;9.00;82.60;;;;;;5029285;28;20124;-67
2024/02/07 10:36:24;;;;;;;2.22;1.33;;;9.00;82.50;;;;;;5020751;28;20528;-67
2024/02/07 10:39:03;;;;;;;1.58;0.60;;;9.00;82.60;;;;;;5027026;28;20052;-67
2024/02/07 10:41:29;;;;;;;3.85;0.93;;;8.90;82.60;;;;;;5026321;28;20044;-67
2024/02/07 10:44:08;;;;;;;0.90;0.63;;;8.90;82.60;;;;;;5027390;28;20017;-67
2024/02/07 10:46:34;;;;;;;5.43;1.40;;;9.00;82.60;;;;;;5032183;28;20068;-67
2024/02/07 10:49:00;;;;;;;2.03;1.23;;;9.00;82.50;;;;;;5057423;28;20434;-67
2024/02/07 10:51:32;;;;;;;1.98;0.95;;;9.00;82.40;;;;;;5033681;28;20372;-67
2024/02/07 10:54:05;;;;;;;3.08;0.98;;;9.10;82.30;;;;;;5035466;28;20052;-67
2024/02/07 10:56:35;;;;;;;1.50;1.25;;;9.10;82.10;;;;;;5028456;28;20044;-67
2024/02/07 10:59:02;;;;;;;1.23;0.70;;;9.10;82.20;;;;;;5029166;28;20394;-67
2024/02/07 11:01:29;;;;;;;2.22;0.80;;;9.20;82.30;;;;;;5031863;28;20025;-66
2024/02/07 11:03:58;;;;;;;2.20;1.20;;;9.20;82.90;;;;;;5023498;28;20037;-67
2024/02/07 11:06:25;;;;;;;5.28;1.17;;;9.30;82.30;;;;;;5027950;28;20025;-67
2024/02/07 11:08:55;;;;;;;4.40;1.00;;;9.40;82.30;;;;;;5024223;28;20116;-67
2024/02/07 11:11:21;;;;;;;1.75;0.63;;;9.40;82.00;;;;;;5027037;28;20021;-67
2024/02/07 11:13:52;;;;;;;1.08;0.68;;;9.50;82.00;;;;;;5027704;28;20025;-67
2024/02/07 11:16:18;;;;;;;16.77;1.58;;;9.70;81.90;;;;;;5025583;28;20060;-67
2024/02/07 11:18:44;;;;;;;1.38;0.73;;;9.80;81.60;;;;;;5035282;28;20033;-67
2024/02/07 11:21:13;;;;;;;4.45;1.10;;;10.00;81.40;;;;;;5036389;28;20067;-67
2024/02/07 11:23:40;;;;;;;3.05;1.10;;;10.10;81.10;;;;;;5030828;28;20037;-61
2024/02/07 11:26:09;;;;;;;3.30;0.80;;;10.30;80.90;;;;;;5020182;28;20468;-61
2024/02/07 11:28:36;;;;;;;14.52;1.50;;;10.50;80.30;;;;;;5028646;28;20450;-61
2024/02/07 11:31:03;;;;;;;4.32;0.93;;;10.60;80.00;;;;;;5026921;28;20048;-61
2024/02/07 11:33:33;;;;;;;0.65;0.45;;;10.80;79.60;;;;;;5024832;28;20018;-62
2024/02/07 11:36:06;;;;;;;0.95;0.68;;;10.90;79.40;;;;;;5036458;28;20021;-62
2024/02/07 11:38:36;;;;;;;3.70;1.25;;;11.20;79.50;;;;;;5028658;28;20432;-61
2024/02/07 11:41:06;;;;;;;2.90;0.77;;;11.30;78.60;;;;;;5033318;28;20033;-61
2024/02/07 11:43:36;;;;;;;1.25;0.85;;;11.60;78.10;;;;;;5026361;28;20492;-62
2024/02/07 11:46:06;;;;;;;4.22;0.70;;;11.80;77.60;;;;;;5032482;28;20035;-62
2024/02/07 11:48:40;;;;;;;5.43;1.48;;;12.10;77.30;;;;;;5024013;28;20037;-62
2024/02/07 11:51:08;;;;;;;1.27;1.00;;;12.40;76.50;;;;;;5025088;28;20124;-61
2024/02/07 11:53:38;;;;;;;5.57;1.55;;;12.70;75.60;;;;;;5027324;28;20040;-61
2024/02/07 11:56:18;;;;;;;3.22;0.80;;;13.10;74.50;;;;;;5028392;28;20109;-61
2024/02/07 11:58:46;;;;;;;3.30;0.50;;;13.60;73.70;;;;;;5026796;28;20032;-61
2024/02/07 12:01:12;;;;;;;3.53;1.10;;;14.30;71.90;;;;;;5057361;28;20026;-61
2024/02/07 12:03:41;;;;;;;0.90;0.68;;;15.00;70.00;;;;;;5034762;28;20038;-62
2024/02/07 12:06:11;;;;;;;5.15;0.85;;;15.70;68.20;;;;;;5030808;28;20532;-61
2024/02/07 12:08:37;;;;;;;7.80;1.10;;;16.40;66.90;;;;;;5029315;28;20564;-61
2024/02/07 12:11:08;;;;;;;2.33;0.80;;;17.20;64.80;;;;;;5035093;28;20399;-61
2024/02/07 12:13:34;;;;;;;1.40;1.15;;;17.10;63.10;;;;;;5059401;28;20047;-61
2024/02/07 12:16:03;;;;;;;3.60;0.90;;;16.40;64.40;;;;;;5042994;28;20133;-61
2024/02/07 12:18:29;;;;;;;1.45;0.88;;;16.50;65.10;;;;;;5027925;28;20030;-62
2024/02/07 12:21:00;;;;;;;2.38;0.70;;;17.30;63.80;;;;;;5035181;28;20039;-62
2024/02/07 12:23:26;;;;;;;3.22;0.95;;;18.10;61.60;;;;;;5028818;28;20084;-62
2024/02/07 12:25:59;;;;;;;3.97;0.98;;;18.40;59.60;;;;;;5039707;28;20029;-62
2024/02/07 12:28:28;;;;;;;2.45;0.82;;;18.20;58.20;;;;;;5028924;28;20116;-61
2024/02/07 12:30:55;;;;;;;2.38;0.75;;;17.50;59.10;;;;;;5028732;28;20038;-61
2024/02/07 12:33:21;;;;;;;2.97;0.95;;;17.50;58.60;;;;;;5058137;28;20032;-61
2024/02/07 12:35:52;;;;;;;1.33;0.90;;;17.80;57.60;;;;;;5026680;28;20469;-67
2024/02/07 12:38:18;;;;;;;1.13;0.65;;;18.60;57.30;;;;;;5029154;28;20420;-67
2024/02/07 12:40:51;;;;;;;2.28;0.82;;;18.90;54.50;;;;;;5025604;28;20031;-67
2024/02/07 12:43:28;;;;;;;3.60;0.60;;;18.40;55.70;;;;;;5013968;28;20444;-61
2024/02/07 12:45:58;;;;;;;1.88;1.10;;;18.80;55.60;;;;;;5028440;28;20471;-61
2024/02/07 12:48:25;;;;;;;0.60;0.60;;;19.00;53.80;;;;;;5017632;28;20034;-61
2024/02/07 12:50:52;;;;;;;3.90;1.30;;;18.60;54.60;;;;;;5019081;28;20059;-62
2024/02/07 12:53:19;;;;;;;2.50;0.73;;;18.40;56.10;;;;;;5026729;28;20028;-62
2024/02/07 12:55:49;;;;;;;2.95;1.08;;;19.00;54.60;;;;;;5024620;28;20112;-62
2024/02/07 12:58:16;;;;;;;0.43;0.20;;;19.20;53.10;;;;;;5024890;28;20029;-62
2024/02/07 13:00:42;;;;;;;3.58;0.77;;;18.60;53.20;;;;;;5024690;28;20119;-61
2024/02/07 13:03:08;;;;;;;1.95;0.73;;;17.70;54.60;;;;;;5029808;28;20026;-62
2024/02/07 13:05:34;;;;;;;0.98;0.30;;;16.90;56.10;;;;;;5020176;28;20458;-61
2024/02/07 13:08:00;;;;;;;0.57;0.55;;;16.20;56.80;;;;;;5028858;28;20030;-61
2024/02/07 13:10:26;;;;;;;0.68;0.30;;;15.70;58.10;;;;;;5032252;28;21245;-61
2024/02/07 13:12:52;;;;;;;1.80;0.68;;;15.40;58.40;;;;;;5036793;28;20033;-67
2024/02/07 13:15:19;;;;;;;0.50;0.20;;;15.30;58.00;;;;;;5032800;28;20053;-67
2024/02/07 13:17:46;;;;;;;1.55;0.75;;;15.50;57.50;;;;;;5025647;28;20563;-67
2024/02/07 13:20:13;;;;;;;2.60;0.82;;;15.70;56.60;;;;;;5026245;28;20013;-67
2024/02/07 13:22:39;;;;;;;8.68;1.08;;;16.00;56.30;;;;;;5028671;28;20043;-67
2024/02/07 13:25:12;;;;;;;2.15;0.88;;;16.30;55.00;;;;;;5023755;28;20144;-67
2024/02/07 13:27:38;;;;;;;3.40;0.63;;;16.30;54.90;;;;;;5027672;28;20056;-67
2024/02/07 13:30:09;;;;;;;3.50;0.90;;;16.20;54.60;;;;;;5028286;28;20498;-67
2024/02/07 13:32:35;;;;;;;2.88;1.30;;;16.20;53.00;;;;;;5027084;28;20036;-67
2024/02/07 13:35:01;;;;;;;3.53;0.70;;;16.20;53.40;;;;;;5021874;28;20045;-67
2024/02/07 13:37:26;;;;;;;5.00;1.20;;;16.20;53.70;;;;;;5030717;28;20029;-67
2024/02/07 13:39:53;;;;;;;0.73;0.50;;;16.30;52.90;;;;;;5028285;28;20448;-66
2024/02/07 13:42:19;;;;;;;2.25;0.98;;;16.40;53.30;;;;;;5025287;28;20539;-65
2024/02/07 13:44:44;;;;;;;2.97;0.70;;;16.40;53.80;;;;;;5035734;28;20033;-66
2024/02/07 13:47:10;;;;;;;1.48;0.70;;;16.20;54.20;;;;;;5031491;28;20037;-65
2024/02/07 13:49:36;;;;;;;1.92;0.73;;;15.90;55.10;;;;;;5022887;28;20100;-66
2024/02/07 13:52:02;;;;;;;4.07;1.15;;;15.50;56.20;;;;;;5027696;28;20052;-65
2024/02/07 13:54:29;;;;;;;3.33;0.82;;;15.20;57.00;;;;;;5015130;28;20225;-65
2024/02/07 13:56:55;;;;;;;2.00;0.40;;;15.00;57.90;;;;;;5027802;28;20048;-66
2024/02/07 13:59:21;;;;;;;1.23;0.80;;;14.70;58.40;;;;;;5033028;28;20036;-66
2024/02/07 14:01:48;;;;;;;1.30;0.60;;;14.30;59.00;;;;;;5025640;28;20037;-66
2024/02/07 14:04:14;;;;;;;0.90;0.52;;;13.90;59.70;;;;;;5029586;28;20048;-66